Time;durP1;ratioP1;P1;durP2;ratioP2;P2;SDS_P1;SDS_P2;PMS_P1;PMS_P2;Temp;Humidity;BMP_temperature;BMP_pressure;BME280_temperature;BME280_humidity;BME280_pressure;Samples;Min_cycle;Max_cycle;Signal;HPM_P1;HPM_P2
2023/09/16 00:00:44;;;;;;;9.97;8.40;;;;;;;;;;5012704;28;20450;-79
2023/09/16 00:03:10;;;;;;;9.00;6.90;;;;;;;;;;4988517;28;20486;-80
2023/09/16 00:05:38;;;;;;;9.80;7.60;;;;;;;;;;4998624;28;20470;-79
2023/09/16 00:08:06;;;;;;;6.83;6.10;;;;;;;;;;4995510;28;20821;-79
2023/09/16 00:10:34;;;;;;;7.53;6.63;;;;;;;;;;5011801;28;20470;-79
2023/09/16 00:13:00;;;;;;;9.23;6.30;;;;;;;;;;5014171;28;20472;-80
2023/09/16 00:15:27;;;;;;;7.00;6.40;;;;;;;;;;5014220;28;20843;-79
2023/09/16 00:17:54;;;;;;;7.30;6.53;;;;;;;;;;4981711;28;20823;-80
2023/09/16 00:20:21;;;;;;;8.30;7.30;;;;;;;;;;5014107;28;20465;-79
2023/09/16 00:22:48;;;;;;;9.83;7.63;;;;;;;;;;4999782;28;20551;-79
2023/09/16 00:25:16;;;;;;;8.23;6.40;;;;;;;;;;5009092;28;20454;-79
2023/09/16 00:27:42;;;;;;;9.60;6.90;;;;;;;;;;5011968;28;20499;-81
2023/09/16 00:30:09;;;;;;;8.57;7.37;;;;;;;;;;4995906;28;20464;-79
2023/09/16 00:32:35;;;;;;;7.63;6.93;;;;;;;;;;5007061;28;20469;-79
2023/09/16 00:35:02;;;;;;;8.37;7.30;;;;;;;;;;5017318;28;20447;-80
2023/09/16 00:37:30;;;;;;;8.60;7.80;;;;;;;;;;5023898;28;20461;-80
2023/09/16 00:39:56;;;;;;;9.50;6.70;;;;;;;;;;5012484;28;20465;-80
2023/09/16 00:42:24;;;;;;;8.63;7.10;;;;;;;;;;5002184;28;20534;-80
2023/09/16 00:44:51;;;;;;;8.40;7.50;;;;;;;;;;5021367;28;20472;-80
2023/09/16 00:47:17;;;;;;;10.30;7.77;;;;;;;;;;5013941;28;20466;-79
2023/09/16 00:49:43;;;;;;;7.50;6.80;;;;;;;;;;5013400;28;20469;-79
2023/09/16 00:52:10;;;;;;;8.33;6.90;;;;;;;;;;5006917;28;20835;-79
2023/09/16 00:54:38;;;;;;;10.30;7.33;;;;;;;;;;5017897;28;21021;-79
2023/09/16 00:57:05;;;;;;;6.80;6.20;;;;;;;;;;4998104;28;20488;-79
2023/09/16 00:59:33;;;;;;;7.13;6.43;;;;;;;;;;5012257;28;20508;-81
2023/09/16 01:02:00;;;;;;;7.30;6.60;;;;;;;;;;5003130;28;20519;-79
2023/09/16 01:04:26;;;;;;;9.67;6.10;;;;;;;;;;5010601;28;20477;-80
2023/09/16 01:06:53;;;;;;;8.97;7.33;;;;;;;;;;5011432;28;20452;-80
2023/09/16 01:09:20;;;;;;;8.50;7.70;;;;;;;;;;5006943;28;20480;-82
2023/09/16 01:11:47;;;;;;;8.47;7.47;;;;;;;;;;5006281;28;20498;-82
2023/09/16 01:14:13;;;;;;;10.07;7.60;;;;;;;;;;5020856;28;20444;-81
2023/09/16 01:16:44;;;;;;;9.77;7.40;;;;;;;;;;5017279;28;20447;-82
2023/09/16 01:19:16;;;;;;;8.73;7.37;;;;;;;;;;5020176;28;20471;-81
2023/09/16 01:21:43;;;;;;;10.27;6.53;;;;;;;;;;5021917;28;20487;-81
2023/09/16 01:24:16;;;;;;;7.27;6.57;;;;;;;;;;5002489;28;20567;-81
2023/09/16 01:26:44;;;;;;;7.13;6.50;;;;;;;;;;4998727;28;20525;-82
2023/09/16 01:29:11;;;;;;;10.70;7.13;;;;;;;;;;5015343;28;20444;-80
2023/09/16 01:31:38;;;;;;;16.80;7.37;;;;;;;;;;5014149;28;20532;-79
2023/09/16 01:34:09;;;;;;;29.77;8.67;;;;;;;;;;5006780;28;20487;-79
2023/09/16 01:36:36;;;;;;;10.97;7.33;;;;;;;;;;5022762;28;20470;-78
2023/09/16 01:39:03;;;;;;;11.73;7.50;;;;;;;;;;5013449;28;20974;-81
2023/09/16 01:41:33;;;;;;;10.33;7.87;;;;;;;;;;5009202;28;20448;-80
2023/09/16 01:44:01;;;;;;;8.60;7.80;;;;;;;;;;5017314;28;20977;-81
2023/09/16 01:46:28;;;;;;;9.03;7.00;;;;;;;;;;5016165;28;20540;-78
2023/09/16 01:48:54;;;;;;;8.93;7.37;;;;;;;;;;5004764;28;20473;-83
2023/09/16 01:51:20;;;;;;;7.90;7.10;;;;;;;;;;5022608;28;20444;-78
2023/09/16 01:53:47;;;;;;;7.80;6.90;;;;;;;;;;5018702;28;20466;-79
2023/09/16 01:56:13;;;;;;;9.83;7.37;;;;;;;;;;4991543;28;20494;-82
2023/09/16 01:58:40;;;;;;;8.13;7.23;;;;;;;;;;4986721;28;20799;-82
2023/09/16 02:01:10;;;;;;;7.80;7.00;;;;;;;;;;5020120;28;20469;-80
2023/09/16 02:03:37;;;;;;;7.20;6.60;;;;;;;;;;5015124;28;21021;-80
2023/09/16 02:06:04;;;;;;;8.47;7.57;;;;;;;;;;5001390;28;20494;-78
2023/09/16 02:08:30;;;;;;;8.03;7.20;;;;;;;;;;5004996;28;20498;-80
2023/09/16 02:10:56;;;;;;;8.80;7.90;;;;;;;;;;5015356;28;20462;-81
2023/09/16 02:13:23;;;;;;;8.67;6.90;;;;;;;;;;4992754;28;20491;-78
2023/09/16 02:15:49;;;;;;;9.30;6.80;;;;;;;;;;5011650;28;20956;-81
2023/09/16 02:18:17;;;;;;;8.27;6.70;;;;;;;;;;4987143;28;20472;-80
2023/09/16 02:20:44;;;;;;;11.00;8.83;;;;;;;;;;5010611;28;20502;-79
2023/09/16 02:23:10;;;;;;;6.90;6.20;;;;;;;;;;5022586;28;20466;-78
2023/09/16 02:25:37;;;;;;;9.13;7.00;;;;;;;;;;4999433;28;20475;-78
2023/09/16 02:28:04;;;;;;;7.03;6.43;;;;;;;;;;5018699;28;20436;-78
2023/09/16 02:30:30;;;;;;;11.43;6.73;;;;;;;;;;4999372;28;20527;-78
2023/09/16 02:32:57;;;;;;;8.10;7.30;;;;;;;;;;5027928;28;20479;-80
2023/09/16 02:35:24;;;;;;;7.83;7.20;;;;;;;;;;5007043;28;20480;-80
2023/09/16 02:37:51;;;;;;;8.00;7.20;;;;;;;;;;5006071;28;20471;-81
2023/09/16 02:40:17;;;;;;;10.20;8.50;;;;;;;;;;5000254;28;20432;-80
2023/09/16 02:42:43;;;;;;;11.70;7.50;;;;;;;;;;5012133;28;20445;-80
2023/09/16 02:45:10;;;;;;;6.70;6.10;;;;;;;;;;5006010;28;20852;-78
2023/09/16 02:47:36;;;;;;;9.47;6.70;;;;;;;;;;5019916;28;20464;-80
2023/09/16 02:50:03;;;;;;;7.90;6.83;;;;;;;;;;5005514;28;20465;-80
2023/09/16 02:52:31;;;;;;;8.50;5.80;;;;;;;;;;4989532;28;20477;-80
2023/09/16 02:54:57;;;;;;;12.43;7.50;;;;;;;;;;5005724;28;20842;-79
2023/09/16 02:57:23;;;;;;;8.87;7.47;;;;;;;;;;5020072;28;20450;-80
2023/09/16 02:59:50;;;;;;;8.40;6.83;;;;;;;;;;5010803;28;20458;-83
2023/09/16 03:02:16;;;;;;;9.30;7.60;;;;;;;;;;5021631;28;20468;-81
2023/09/16 03:04:42;;;;;;;9.07;6.50;;;;;;;;;;5016768;28;20534;-81
2023/09/16 03:07:09;;;;;;;7.40;6.70;;;;;;;;;;5013347;28;20967;-83
2023/09/16 03:09:37;;;;;;;7.63;6.77;;;;;;;;;;5018364;28;20474;-82
2023/09/16 03:12:04;;;;;;;8.63;7.80;;;;;;;;;;4993939;28;20517;-82
2023/09/16 03:14:31;;;;;;;7.60;6.90;;;;;;;;;;5011478;28;20547;-80
2023/09/16 03:16:57;;;;;;;9.47;7.03;;;;;;;;;;5022436;28;20440;-83
2023/09/16 03:19:24;;;;;;;8.17;6.40;;;;;;;;;;5020324;28;20465;-82
2023/09/16 03:21:51;;;;;;;8.17;7.43;;;;;;;;;;5034204;28;20443;-80
2023/09/16 03:24:17;;;;;;;6.37;5.87;;;;;;;;;;5022135;28;20858;-80
2023/09/16 03:26:45;;;;;;;8.73;6.43;;;;;;;;;;5018575;28;20461;-81
2023/09/16 03:29:12;;;;;;;6.70;6.00;;;;;;;;;;5020423;28;20464;-81
2023/09/16 03:31:38;;;;;;;9.40;7.17;;;;;;;;;;5016265;28;20447;-80
2023/09/16 03:34:04;;;;;;;9.87;7.67;;;;;;;;;;5023694;28;20442;-80
2023/09/16 03:36:31;;;;;;;11.83;8.50;;;;;;;;;;5009453;28;20452;-80
2023/09/16 03:38:57;;;;;;;8.80;7.07;;;;;;;;;;5021756;28;20469;-82
2023/09/16 03:41:23;;;;;;;8.50;7.60;;;;;;;;;;5026217;28;20482;-80
2023/09/16 03:43:51;;;;;;;14.90;7.77;;;;;;;;;;5011789;28;20487;-82
2023/09/16 03:46:17;;;;;;;9.30;7.60;;;;;;;;;;5004107;28;20468;-79
2023/09/16 03:48:44;;;;;;;8.27;7.47;;;;;;;;;;5028444;28;20469;-80
2023/09/16 03:51:10;;;;;;;7.60;6.90;;;;;;;;;;5011543;28;20972;-80
2023/09/16 03:53:37;;;;;;;9.60;7.10;;;;;;;;;;5027305;28;20440;-79
2023/09/16 03:56:05;;;;;;;8.27;7.47;;;;;;;;;;5010847;28;20464;-81
2023/09/16 03:58:32;;;;;;;10.00;8.10;;;;;;;;;;5015375;28;20477;-81
2023/09/16 04:01:00;;;;;;;12.33;8.10;;;;;;;;;;5003935;28;20435;-80
2023/09/16 04:03:27;;;;;;;8.83;7.87;;;;;;;;;;5006719;28;20465;-79
2023/09/16 04:05:56;;;;;;;8.97;8.07;;;;;;;;;;5005870;28;20458;-81
2023/09/16 04:08:24;;;;;;;13.03;8.50;;;;;;;;;;5026436;28;20461;-81
2023/09/16 04:10:50;;;;;;;9.73;8.13;;;;;;;;;;5002707;28;20480;-79
2023/09/16 04:13:16;;;;;;;11.50;8.70;;;;;;;;;;5016761;28;20443;-80
2023/09/16 04:15:43;;;;;;;9.80;8.80;;;;;;;;;;5022573;28;20559;-81
2023/09/16 04:18:11;;;;;;;10.70;8.27;;;;;;;;;;5005488;28;20508;-79
2023/09/16 04:20:37;;;;;;;9.53;8.10;;;;;;;;;;5023368;28;20521;-79
2023/09/16 04:23:04;;;;;;;10.40;8.63;;;;;;;;;;5011801;28;20476;-82
2023/09/16 04:25:31;;;;;;;9.60;8.60;;;;;;;;;;5022190;28;20481;-80
2023/09/16 04:27:57;;;;;;;9.80;7.90;;;;;;;;;;5009701;28;20441;-80
2023/09/16 04:30:24;;;;;;;10.20;8.37;;;;;;;;;;4988653;28;20493;-80
2023/09/16 04:32:50;;;;;;;10.97;8.87;;;;;;;;;;5016818;28;20468;-81
2023/09/16 04:35:18;;;;;;;9.90;8.73;;;;;;;;;;5025067;28;20452;-80
2023/09/16 04:37:45;;;;;;;10.07;9.03;;;;;;;;;;5014698;28;20493;-80
2023/09/16 04:40:12;;;;;;;9.40;8.37;;;;;;;;;;5007298;28;20471;-82
2023/09/16 04:42:38;;;;;;;11.20;8.93;;;;;;;;;;5016624;28;21138;-80
2023/09/16 04:45:05;;;;;;;10.80;9.40;;;;;;;;;;4997086;28;20441;-80
2023/09/16 04:47:33;;;;;;;10.90;9.80;;;;;;;;;;5014385;28;20444;-82
2023/09/16 04:50:00;;;;;;;11.03;9.00;;;;;;;;;;4985673;28;20463;-80
2023/09/16 04:52:32;;;;;;;9.60;8.70;;;;;;;;;;5017532;28;21045;-83
2023/09/16 04:54:58;;;;;;;13.30;8.97;;;;;;;;;;4994991;28;20475;-82
2023/09/16 04:57:25;;;;;;;9.97;8.97;;;;;;;;;;5017737;28;20481;-83
2023/09/16 04:59:52;;;;;;;12.30;8.30;;;;;;;;;;5011608;28;20433;-82
2023/09/16 05:02:18;;;;;;;9.93;9.00;;;;;;;;;;4986849;28;20462;-83
2023/09/16 05:04:45;;;;;;;9.53;8.60;;;;;;;;;;4998436;28;20452;-83
2023/09/16 05:07:11;;;;;;;10.23;8.67;;;;;;;;;;5012598;28;20447;-82
2023/09/16 05:09:39;;;;;;;12.20;9.57;;;;;;;;;;5015040;28;20466;-82
2023/09/16 05:12:06;;;;;;;10.27;9.27;;;;;;;;;;5021816;28;20439;-81
2023/09/16 05:14:32;;;;;;;9.97;8.97;;;;;;;;;;5014858;28;20820;-82
2023/09/16 05:16:58;;;;;;;9.57;8.73;;;;;;;;;;5020195;28;20440;-81
2023/09/16 05:19:25;;;;;;;9.73;8.73;;;;;;;;;;5024447;28;20448;-82
2023/09/16 05:21:51;;;;;;;10.57;9.20;;;;;;;;;;4984900;28;20891;-81
2023/09/16 05:24:18;;;;;;;12.17;10.03;;;;;;;;;;5007269;28;20449;-84
2023/09/16 05:26:45;;;;;;;10.70;9.47;;;;;;;;;;4985979;28;20553;-81
2023/09/16 05:29:13;;;;;;;10.30;9.23;;;;;;;;;;5009520;28;20453;-81
2023/09/16 05:31:39;;;;;;;11.40;9.37;;;;;;;;;;5013363;28;20463;-83
2023/09/16 05:34:06;;;;;;;11.17;9.80;;;;;;;;;;5011406;28;20466;-82
2023/09/16 05:36:33;;;;;;;10.30;8.50;;;;;;;;;;5011617;28;20449;-82
2023/09/16 05:39:01;;;;;;;11.00;9.90;;;;;;;;;;5016648;28;20448;-83
2023/09/16 05:41:28;;;;;;;10.23;9.10;;;;;;;;;;4999650;28;20439;-82
2023/09/16 05:43:56;;;;;;;10.90;9.80;;;;;;;;;;4998814;28;20550;-82
2023/09/16 05:46:23;;;;;;;10.17;9.10;;;;;;;;;;5016629;28;20454;-82
2023/09/16 05:48:50;;;;;;;12.07;10.17;;;;;;;;;;5013419;28;20854;-82
2023/09/16 05:51:16;;;;;;;11.90;9.57;;;;;;;;;;5015895;28;21035;-81
2023/09/16 05:53:42;;;;;;;10.83;9.30;;;;;;;;;;5009673;28;20451;-82
2023/09/16 05:56:09;;;;;;;9.90;9.00;;;;;;;;;;4990923;28;20488;-81
2023/09/16 05:58:35;;;;;;;10.83;9.70;;;;;;;;;;5015067;28;20463;-80
2023/09/16 06:01:03;;;;;;;11.07;10.03;;;;;;;;;;4991271;28;20476;-82
2023/09/16 06:03:30;;;;;;;10.93;9.90;;;;;;;;;;5009756;28;20451;-81
2023/09/16 06:05:57;;;;;;;9.87;8.83;;;;;;;;;;5018322;28;20491;-81
2023/09/16 06:08:23;;;;;;;10.20;9.20;;;;;;;;;;5017638;28;20961;-81
2023/09/16 06:10:50;;;;;;;10.07;9.07;;;;;;;;;;5010091;28;20844;-81
2023/09/16 06:13:16;;;;;;;9.03;8.23;;;;;;;;;;5020266;28;20465;-82
2023/09/16 06:15:43;;;;;;;11.20;10.07;;;;;;;;;;5011433;28;20483;-82
2023/09/16 06:18:11;;;;;;;12.20;9.77;;;;;;;;;;5009512;28;20467;-83
2023/09/16 06:20:39;;;;;;;11.63;10.20;;;;;;;;;;5020299;28;20470;-81
2023/09/16 06:23:06;;;;;;;13.43;10.57;;;;;;;;;;5018447;28;20448;-81
2023/09/16 06:25:33;;;;;;;11.80;10.20;;;;;;;;;;5007289;28;20571;-81
2023/09/16 06:28:03;;;;;;;12.50;11.30;;;;;;;;;;5015405;28;20449;-81
2023/09/16 06:30:30;;;;;;;15.70;11.20;;;;;;;;;;5008091;28;20587;-81
2023/09/16 06:32:57;;;;;;;10.67;9.67;;;;;;;;;;5009424;28;20441;-82
2023/09/16 06:35:25;;;;;;;13.93;10.60;;;;;;;;;;4992294;28;20472;-82
2023/09/16 06:37:51;;;;;;;11.33;10.10;;;;;;;;;;5008755;28;20484;-81
2023/09/16 06:40:17;;;;;;;13.10;9.10;;;;;;;;;;5008768;28;20846;-82
2023/09/16 06:42:44;;;;;;;12.40;11.20;;;;;;;;;;5007485;28;20446;-82
2023/09/16 06:45:12;;;;;;;14.77;10.33;;;;;;;;;;5006000;28;20452;-82
2023/09/16 06:47:39;;;;;;;10.90;9.80;;;;;;;;;;5011594;28;20941;-81
2023/09/16 06:50:06;;;;;;;11.33;10.27;;;;;;;;;;5011408;28;20441;-81
2023/09/16 06:52:34;;;;;;;13.20;10.10;;;;;;;;;;5005997;28;20471;-81
2023/09/16 06:55:00;;;;;;;14.77;10.43;;;;;;;;;;5015422;28;20436;-81
2023/09/16 06:57:26;;;;;;;11.67;10.43;;;;;;;;;;5013582;28;20444;-81
2023/09/16 06:59:54;;;;;;;10.47;9.43;;;;;;;;;;5013510;28;20470;-82
2023/09/16 07:02:22;;;;;;;15.00;10.57;;;;;;;;;;5012250;28;20472;-81
2023/09/16 07:04:48;;;;;;;12.53;10.47;;;;;;;;;;5006062;28;20448;-82
2023/09/16 07:07:15;;;;;;;12.27;10.23;;;;;;;;;;5006877;28;20445;-82
2023/09/16 07:09:42;;;;;;;11.63;10.40;;;;;;;;;;4994638;28;21163;-81
2023/09/16 07:12:09;;;;;;;12.37;9.83;;;;;;;;;;5011081;28;20439;-81
2023/09/16 07:14:37;;;;;;;13.30;11.07;;;;;;;;;;5014655;28;20473;-82
2023/09/16 07:17:03;;;;;;;12.67;10.10;;;;;;;;;;5010537;28;20448;-81
2023/09/16 07:19:29;;;;;;;12.23;10.17;;;;;;;;;;5019370;28;20447;-81
2023/09/16 07:21:56;;;;;;;13.60;10.47;;;;;;;;;;5017453;28;20442;-81
2023/09/16 07:24:22;;;;;;;12.67;10.87;;;;;;;;;;5012610;28;20454;-82
2023/09/16 07:26:51;;;;;;;10.30;9.37;;;;;;;;;;4992782;28;20441;-81
2023/09/16 07:29:18;;;;;;;12.10;10.80;;;;;;;;;;5017183;28;20440;-81
2023/09/16 07:31:44;;;;;;;14.53;10.47;;;;;;;;;;5002174;28;21060;-81
2023/09/16 07:34:11;;;;;;;12.73;9.97;;;;;;;;;;4987075;28;20594;-81
2023/09/16 07:36:39;;;;;;;12.10;10.07;;;;;;;;;;5010534;28;20488;-81
2023/09/16 07:39:05;;;;;;;13.30;10.90;;;;;;;;;;5009660;28;20989;-82
2023/09/16 07:41:32;;;;;;;10.43;9.30;;;;;;;;;;4999184;28;20540;-80
2023/09/16 07:43:59;;;;;;;14.30;10.50;;;;;;;;;;5014365;28;20982;-81
2023/09/16 07:46:26;;;;;;;10.77;9.63;;;;;;;;;;5012870;28;20600;-82
2023/09/16 07:48:52;;;;;;;11.00;9.90;;;;;;;;;;4983996;28;20443;-82
2023/09/16 07:51:19;;;;;;;13.57;9.67;;;;;;;;;;5009735;28;20470;-81
2023/09/16 07:53:45;;;;;;;10.87;9.87;;;;;;;;;;5003959;28;20452;-81
2023/09/16 07:56:12;;;;;;;12.20;10.17;;;;;;;;;;5009253;28;20435;-81
2023/09/16 07:58:38;;;;;;;12.43;10.70;;;;;;;;;;5011622;28;20482;-82
2023/09/16 08:01:06;;;;;;;9.67;8.77;;;;;;;;;;5006990;28;20485;-81
2023/09/16 08:03:32;;;;;;;9.83;8.93;;;;;;;;;;5015154;28;20464;-81
2023/09/16 08:05:59;;;;;;;16.40;10.07;;;;;;;;;;5020557;28;20499;-81
2023/09/16 08:08:25;;;;;;;10.30;9.30;;;;;;;;;;5018383;28;20532;-82
2023/09/16 08:10:51;;;;;;;12.13;9.70;;;;;;;;;;5007004;28;20460;-82
2023/09/16 08:13:18;;;;;;;11.53;10.33;;;;;;;;;;5001767;28;20451;-81
2023/09/16 08:15:44;;;;;;;9.93;8.93;;;;;;;;;;5012847;28;20449;-80
2023/09/16 08:18:12;;;;;;;11.93;10.80;;;;;;;;;;4987648;28;20564;-82
2023/09/16 08:20:39;;;;;;;16.37;10.33;;;;;;;;;;5010942;28;20466;-81
2023/09/16 08:23:06;;;;;;;11.53;9.80;;;;;;;;;;5010938;28;20466;-81
2023/09/16 08:25:33;;;;;;;11.30;9.40;;;;;;;;;;4998151;28;20469;-80
2023/09/16 08:27:59;;;;;;;14.00;9.60;;;;;;;;;;5020284;28;20495;-81
2023/09/16 08:30:26;;;;;;;11.90;10.40;;;;;;;;;;5015507;28;20448;-80
2023/09/16 08:32:52;;;;;;;9.83;8.70;;;;;;;;;;4989300;28;20554;-81
2023/09/16 08:35:21;;;;;;;11.60;10.40;;;;;;;;;;5025217;28;20464;-81
2023/09/16 08:37:47;;;;;;;11.10;9.63;;;;;;;;;;5016506;28;20484;-81
2023/09/16 08:40:14;;;;;;;9.60;8.70;;;;;;;;;;5006575;28;20456;-81
2023/09/16 08:42:42;;;;;;;10.40;8.97;;;;;;;;;;5020162;28;20475;-82
2023/09/16 08:45:13;;;;;;;10.23;9.30;;;;;;;;;;5011045;28;21021;-81
2023/09/16 08:47:42;;;;;;;13.80;9.87;;;;;;;;;;4976523;28;20486;-81
2023/09/16 08:50:09;;;;;;;10.97;9.87;;;;;;;;;;4978568;28;20467;-81
2023/09/16 08:52:40;;;;;;;12.90;9.23;;;;;;;;;;5005289;28;20475;-81
2023/09/16 08:55:08;;;;;;;11.57;9.73;;;;;;;;;;5010872;28;20466;-79
2023/09/16 08:57:35;;;;;;;10.57;9.13;;;;;;;;;;5019499;28;20464;-81
2023/09/16 09:00:03;;;;;;;11.93;9.53;;;;;;;;;;5016325;28;21026;-82
2023/09/16 09:02:30;;;;;;;9.90;8.87;;;;;;;;;;5014396;28;20536;-81
2023/09/16 09:04:56;;;;;;;10.73;9.70;;;;;;;;;;5014983;28;20482;-82
2023/09/16 09:07:24;;;;;;;10.37;9.37;;;;;;;;;;5009902;28;20470;-80
2023/09/16 09:09:52;;;;;;;10.37;9.40;;;;;;;;;;5014459;28;20482;-79
2023/09/16 09:12:19;;;;;;;9.73;8.20;;;;;;;;;;5018734;28;20466;-81
2023/09/16 09:14:46;;;;;;;9.50;8.60;;;;;;;;;;5014572;28;20474;-80
2023/09/16 09:17:13;;;;;;;10.50;9.40;;;;;;;;;;4985259;28;20518;-80
2023/09/16 09:19:40;;;;;;;11.33;9.87;;;;;;;;;;4982642;28;20474;-79
2023/09/16 09:22:07;;;;;;;10.40;9.30;;;;;;;;;;5020731;28;20456;-82
2023/09/16 09:24:34;;;;;;;10.63;8.60;;;;;;;;;;5007647;28;20473;-80
2023/09/16 09:27:02;;;;;;;10.87;8.30;;;;;;;;;;4978426;28;20467;-81
2023/09/16 09:29:29;;;;;;;10.27;9.27;;;;;;;;;;5010017;28;21075;-79
2023/09/16 09:31:55;;;;;;;9.93;8.97;;;;;;;;;;5008520;28;20489;-79
2023/09/16 09:34:22;;;;;;;10.80;9.70;;;;;;;;;;5012213;28;20474;-79
2023/09/16 09:36:48;;;;;;;12.10;10.80;;;;;;;;;;5012924;28;20466;-77
2023/09/16 09:39:14;;;;;;;11.57;10.37;;;;;;;;;;5017941;28;20470;-80
2023/09/16 09:41:45;;;;;;;11.17;9.50;;;;;;;;;;5016615;28;21017;-82
2023/09/16 09:44:13;;;;;;;11.23;8.77;;;;;;;;;;5013215;28;20480;-79
2023/09/16 09:46:40;;;;;;;10.90;8.63;;;;;;;;;;5013572;28;20588;-78
2023/09/16 09:49:08;;;;;;;9.20;8.23;;;;;;;;;;5009373;28;20520;-79
2023/09/16 09:51:35;;;;;;;12.77;9.60;;;;;;;;;;5025444;28;20458;-79
2023/09/16 09:54:03;;;;;;;12.27;9.50;;;;;;;;;;5023732;28;20492;-80
2023/09/16 09:56:31;;;;;;;10.83;9.03;;;;;;;;;;4992134;28;20476;-79
2023/09/16 09:58:58;;;;;;;11.13;8.77;;;;;;;;;;5014617;28;20482;-79
2023/09/16 10:01:30;;;;;;;10.37;9.27;;;;;;;;;;5016810;28;20478;-81
2023/09/16 10:03:57;;;;;;;10.43;9.43;;;;;;;;;;4991232;28;21022;-81
2023/09/16 10:06:24;;;;;;;9.87;8.87;;;;;;;;;;5004322;28;20498;-81
2023/09/16 10:08:51;;;;;;;10.73;9.63;;;;;;;;;;4992281;28;20933;-80
2023/09/16 10:11:18;;;;;;;9.20;8.30;;;;;;;;;;4987477;28;20463;-82
2023/09/16 10:13:44;;;;;;;9.97;9.00;;;;;;;;;;5014552;28;20467;-78
2023/09/16 10:16:11;;;;;;;10.90;8.80;;;;;;;;;;4999499;28;20466;-78
2023/09/16 10:18:39;;;;;;;9.57;8.53;;;;;;;;;;5015732;28;20481;-80
2023/09/16 10:21:07;;;;;;;7.77;7.00;;;;;;;;;;5017904;28;20504;-81
2023/09/16 10:23:33;;;;;;;11.30;7.70;;;;;;;;;;5016330;28;21366;-79
2023/09/16 10:26:00;;;;;;;8.87;8.07;;;;;;;;;;5004664;28;20477;-78
2023/09/16 10:28:28;;;;;;;10.87;8.07;;;;;;;;;;5008449;28;21011;-78
2023/09/16 10:30:54;;;;;;;8.00;7.23;;;;;;;;;;5012835;28;20487;-79
2023/09/16 10:33:23;;;;;;;11.67;8.40;;;;;;;;;;5019468;28;20461;-78
2023/09/16 10:35:52;;;;;;;8.00;7.27;;;;;;;;;;5008622;28;20499;-79
2023/09/16 10:38:18;;;;;;;8.90;7.97;;;;;;;;;;5007445;28;20476;-78
2023/09/16 10:40:46;;;;;;;9.70;8.47;;;;;;;;;;5010934;28;20474;-80
2023/09/16 10:43:13;;;;;;;10.30;8.90;;;;;;;;;;5023296;28;20515;-80
2023/09/16 10:45:43;;;;;;;9.00;7.60;;;;;;;;;;4993856;28;20474;-78
2023/09/16 10:48:09;;;;;;;12.13;7.60;;;;;;;;;;5003899;28;20485;-79
2023/09/16 10:50:37;;;;;;;9.70;7.77;;;;;;;;;;5007665;28;20471;-80
2023/09/16 10:53:06;;;;;;;11.53;8.33;;;;;;;;;;5010670;28;20478;-78
2023/09/16 10:55:35;;;;;;;13.40;7.93;;;;;;;;;;5019333;28;20471;-81
2023/09/16 10:58:02;;;;;;;17.13;8.40;;;;;;;;;;5006073;28;20853;-78
2023/09/16 11:00:33;;;;;;;8.50;7.70;;;;;;;;;;4996960;28;20478;-79
2023/09/16 11:03:02;;;;;;;8.00;7.20;;;;;;;;;;5012156;28;20534;-78
2023/09/16 11:05:29;;;;;;;8.37;7.20;;;;;;;;;;5010340;28;20487;-78
2023/09/16 11:07:56;;;;;;;13.97;7.50;;;;;;;;;;5017224;28;20474;-81
2023/09/16 11:10:24;;;;;;;9.27;6.97;;;;;;;;;;5017307;28;20565;-79
2023/09/16 11:12:52;;;;;;;9.93;6.60;;;;;;;;;;5012015;28;20542;-79
2023/09/16 11:15:19;;;;;;;10.23;7.30;;;;;;;;;;5010668;28;20471;-78
2023/09/16 11:17:46;;;;;;;15.00;8.50;;;;;;;;;;5011969;28;20473;-80
2023/09/16 11:20:13;;;;;;;11.47;7.93;;;;;;;;;;5013824;28;21041;-78
2023/09/16 11:22:40;;;;;;;12.60;7.90;;;;;;;;;;5014205;28;20830;-78
2023/09/16 11:25:07;;;;;;;10.23;7.30;;;;;;;;;;5016917;28;20476;-79
2023/09/16 11:27:35;;;;;;;9.00;6.50;;;;;;;;;;5017227;28;20493;-78
2023/09/16 11:30:10;;;;;;;9.97;6.70;;;;;;;;;;5016796;28;21129;-79
2023/09/16 11:32:38;;;;;;;8.33;7.27;;;;;;;;;;5010733;28;20484;-79
2023/09/16 11:35:05;;;;;;;8.70;6.70;;;;;;;;;;5016995;28;20467;-78
2023/09/16 11:37:37;;;;;;;7.63;6.53;;;;;;;;;;5009561;28;20476;-84
2023/09/16 11:40:08;;;;;;;12.20;6.90;;;;;;;;;;5015914;28;20484;-78
2023/09/16 11:42:36;;;;;;;6.30;5.80;;;;;;;;;;5019565;28;20841;-78
2023/09/16 11:45:03;;;;;;;7.07;5.70;;;;;;;;;;5004852;28;20464;-79
2023/09/16 11:47:31;;;;;;;7.83;5.60;;;;;;;;;;5020721;28;20488;-78
2023/09/16 11:49:57;;;;;;;8.83;6.50;;;;;;;;;;4996288;28;20854;-78
2023/09/16 11:52:24;;;;;;;7.20;6.50;;;;;;;;;;5006923;28;20459;-80
2023/09/16 11:54:51;;;;;;;9.20;4.97;;;;;;;;;;5022308;28;20469;-78
2023/09/16 11:57:18;;;;;;;6.20;5.60;;;;;;;;;;5019182;28;20463;-77
2023/09/16 11:59:48;;;;;;;8.73;6.10;;;;;;;;;;5007428;28;20466;-78
2023/09/16 12:02:14;;;;;;;6.50;5.70;;;;;;;;;;4988047;28;20469;-79
2023/09/16 12:04:41;;;;;;;7.03;6.17;;;;;;;;;;5014496;28;20478;-79
2023/09/16 12:07:07;;;;;;;5.27;4.73;;;;;;;;;;4999346;28;20546;-79
2023/09/16 12:09:34;;;;;;;6.30;5.60;;;;;;;;;;5018911;28;20464;-81
2023/09/16 12:12:04;;;;;;;6.50;5.90;;;;;;;;;;5020343;28;20855;-81
2023/09/16 12:14:30;;;;;;;5.63;5.03;;;;;;;;;;5034850;28;21075;-81
2023/09/16 12:16:58;;;;;;;5.80;5.27;;;;;;;;;;5018451;28;20476;-80
2023/09/16 12:19:24;;;;;;;5.53;5.03;;;;;;;;;;4993001;28;20529;-81
2023/09/16 12:21:51;;;;;;;5.77;4.87;;;;;;;;;;5005769;28;20466;-80
2023/09/16 12:24:18;;;;;;;6.37;5.40;;;;;;;;;;5004701;28;20975;-78
2023/09/16 12:26:45;;;;;;;7.50;5.50;;;;;;;;;;4992978;28;20548;-82
2023/09/16 12:29:14;;;;;;;6.03;4.80;;;;;;;;;;5020765;28;20464;-79
2023/09/16 12:31:40;;;;;;;5.53;4.47;;;;;;;;;;5009048;28;20470;-81
2023/09/16 12:34:14;;;;;;;5.53;4.80;;;;;;;;;;5019502;28;20487;-80
2023/09/16 12:36:41;;;;;;;6.60;5.87;;;;;;;;;;5019257;28;20473;-80
2023/09/16 12:39:07;;;;;;;5.73;5.23;;;;;;;;;;5016531;28;20473;-82
2023/09/16 12:41:33;;;;;;;4.63;4.20;;;;;;;;;;5008887;28;20493;-79
2023/09/16 12:44:00;;;;;;;4.80;4.40;;;;;;;;;;5022629;28;21053;-81
2023/09/16 12:46:28;;;;;;;5.93;5.43;;;;;;;;;;4989290;28;20520;-79
2023/09/16 12:48:55;;;;;;;5.40;5.00;;;;;;;;;;5005659;28;20921;-79
2023/09/16 12:51:23;;;;;;;8.73;5.17;;;;;;;;;;5005782;28;20844;-78
2023/09/16 12:53:51;;;;;;;4.60;4.30;;;;;;;;;;5017908;28;20466;-77
2023/09/16 12:56:18;;;;;;;6.07;5.47;;;;;;;;;;5026719;28;20468;-79
2023/09/16 12:58:45;;;;;;;4.87;4.43;;;;;;;;;;5020164;28;20474;-78
2023/09/16 13:01:17;;;;;;;5.80;5.20;;;;;;;;;;4995305;28;20473;-78
2023/09/16 13:03:43;;;;;;;5.10;4.70;;;;;;;;;;5024837;28;20476;-79
2023/09/16 13:06:10;;;;;;;4.50;4.10;;;;;;;;;;5010570;28;20475;-78
2023/09/16 13:08:38;;;;;;;6.43;5.40;;;;;;;;;;5020731;28;20460;-80
2023/09/16 13:11:05;;;;;;;5.53;4.60;;;;;;;;;;4988086;28;20534;-78
2023/09/16 13:13:31;;;;;;;5.53;5.03;;;;;;;;;;4996952;28;20537;-79
2023/09/16 13:15:58;;;;;;;5.43;4.83;;;;;;;;;;5005390;28;20470;-78
2023/09/16 13:18:25;;;;;;;5.80;5.30;;;;;;;;;;5015811;28;20527;-77
2023/09/16 13:20:54;;;;;;;6.17;5.67;;;;;;;;;;5010949;28;20494;-81
2023/09/16 13:23:24;;;;;;;5.37;4.87;;;;;;;;;;5014156;28;20480;-79
2023/09/16 13:25:52;;;;;;;6.43;4.47;;;;;;;;;;4990736;28;20464;-78
2023/09/16 13:28:19;;;;;;;5.10;4.70;;;;;;;;;;5014525;28;20452;-78
2023/09/16 13:30:48;;;;;;;5.50;5.00;;;;;;;;;;5019052;28;20999;-77
2023/09/16 13:33:14;;;;;;;4.53;4.20;;;;;;;;;;5006932;28;20526;-78
2023/09/16 13:35:43;;;;;;;4.70;4.23;;;;;;;;;;5012081;28;20462;-79
2023/09/16 13:38:11;;;;;;;5.87;5.37;;;;;;;;;;5020314;28;20494;-78
2023/09/16 13:40:37;;;;;;;5.93;4.80;;;;;;;;;;5013737;28;20470;-80
2023/09/16 13:43:06;;;;;;;6.30;5.10;;;;;;;;;;5017605;28;20480;-80
2023/09/16 13:45:33;;;;;;;5.60;5.10;;;;;;;;;;5003164;28;20467;-80
2023/09/16 13:48:10;;;;;;;5.77;5.27;;;;;;;;;;5016531;28;20495;-80
2023/09/16 13:50:36;;;;;;;6.03;4.87;;;;;;;;;;5013523;28;20473;-78
2023/09/16 13:53:03;;;;;;;7.67;5.20;;;;;;;;;;5016510;28;20469;-78
2023/09/16 13:55:29;;;;;;;6.10;5.60;;;;;;;;;;5009873;28;20474;-78
2023/09/16 13:57:57;;;;;;;5.77;5.20;;;;;;;;;;5011177;28;20473;-78
2023/09/16 14:00:25;;;;;;;5.80;5.30;;;;;;;;;;5018694;28;20466;-79
2023/09/16 14:02:51;;;;;;;6.80;5.50;;;;;;;;;;5015187;28;20475;-78
2023/09/16 14:05:18;;;;;;;6.10;5.60;;;;;;;;;;5008434;28;20474;-78
2023/09/16 14:07:44;;;;;;;5.77;5.27;;;;;;;;;;5020884;28;20489;-78
2023/09/16 14:10:11;;;;;;;7.53;5.47;;;;;;;;;;5014502;28;20476;-77
2023/09/16 14:12:37;;;;;;;6.60;5.20;;;;;;;;;;4994104;28;20498;-79
2023/09/16 14:15:05;;;;;;;5.90;5.40;;;;;;;;;;5022192;28;20480;-79
2023/09/16 14:17:33;;;;;;;7.10;4.87;;;;;;;;;;5011331;28;20477;-79
2023/09/16 14:19:59;;;;;;;5.47;5.00;;;;;;;;;;5019436;28;20478;-78
2023/09/16 14:22:29;;;;;;;6.10;4.97;;;;;;;;;;5012974;28;20479;-78
2023/09/16 14:24:55;;;;;;;6.50;5.13;;;;;;;;;;5019282;28;20499;-78
2023/09/16 14:27:21;;;;;;;5.20;4.70;;;;;;;;;;5009320;28;20504;-80
2023/09/16 14:29:48;;;;;;;5.50;4.40;;;;;;;;;;5009986;28;20494;-80
2023/09/16 14:32:19;;;;;;;5.83;5.30;;;;;;;;;;5004823;28;20464;-78
2023/09/16 14:34:47;;;;;;;5.17;4.67;;;;;;;;;;5007537;28;20466;-78